sensor_id;sensor_type;location;lat;lon;timestamp;P1;durP1;ratioP1;P2;durP2;ratioP2
51714;SDS011;39115;59.332;18.034;2023-04-01T00:00:11;3.15;;;0.40;;
51714;SDS011;39115;59.332;18.034;2023-04-01T00:02:33;1.58;;;0.50;;
51714;SDS011;39115;59.332;18.034;2023-04-01T00:04:53;1.80;;;0.40;;
51714;SDS011;39115;59.332;18.034;2023-04-01T00:07:14;0.82;;;0.40;;
51714;SDS011;39115;59.332;18.034;2023-04-01T00:09:34;2.33;;;0.50;;
51714;SDS011;39115;59.332;18.034;2023-04-01T00:11:55;1.35;;;0.40;;
51714;SDS011;39115;59.332;18.034;2023-04-01T00:14:15;1.20;;;0.45;;
51714;SDS011;39115;59.332;18.034;2023-04-01T00:16:36;2.08;;;0.57;;
51714;SDS011;39115;59.332;18.034;2023-04-01T00:18:57;3.25;;;0.35;;
51714;SDS011;39115;59.332;18.034;2023-04-01T00:21:17;3.25;;;0.47;;
51714;SDS011;39115;59.332;18.034;2023-04-01T00:23:40;0.60;;;0.30;;
51714;SDS011;39115;59.332;18.034;2023-04-01T00:26:01;1.58;;;0.50;;
51714;SDS011;39115;59.332;18.034;2023-04-01T00:28:22;4.05;;;0.70;;
51714;SDS011;39115;59.332;18.034;2023-04-01T00:30:43;2.58;;;0.40;;
51714;SDS011;39115;59.332;18.034;2023-04-01T00:33:04;1.10;;;0.38;;
51714;SDS011;39115;59.332;18.034;2023-04-01T00:35:24;1.05;;;0.40;;
51714;SDS011;39115;59.332;18.034;2023-04-01T00:37:45;2.47;;;0.40;;
51714;SDS011;39115;59.332;18.034;2023-04-01T00:40:07;0.63;;;0.30;;
51714;SDS011;39115;59.332;18.034;2023-04-01T00:42:41;2.63;;;0.40;;
51714;SDS011;39115;59.332;18.034;2023-04-01T00:45:23;2.20;;;0.55;;
51714;SDS011;39115;59.332;18.034;2023-04-01T00:47:58;1.95;;;0.50;;
51714;SDS011;39115;59.332;18.034;2023-04-01T00:50:22;0.90;;;0.40;;
51714;SDS011;39115;59.332;18.034;2023-04-01T00:52:45;3.95;;;0.40;;
51714;SDS011;39115;59.332;18.034;2023-04-01T00:55:06;1.02;;;0.30;;
51714;SDS011;39115;59.332;18.034;2023-04-01T00:57:32;2.08;;;0.40;;
51714;SDS011;39115;59.332;18.034;2023-04-01T00:59:56;0.52;;;0.32;;
51714;SDS011;39115;59.332;18.034;2023-04-01T01:02:18;0.70;;;0.30;;
51714;SDS011;39115;59.332;18.034;2023-04-01T01:04:39;2.20;;;0.40;;
51714;SDS011;39115;59.332;18.034;2023-04-01T01:07:03;2.15;;;0.60;;
51714;SDS011;39115;59.332;18.034;2023-04-01T01:10:10;4.22;;;0.40;;
51714;SDS011;39115;59.332;18.034;2023-04-01T01:22:32;3.92;;;0.47;;
51714;SDS011;39115;59.332;18.034;2023-04-01T01:25:18;2.55;;;0.60;;
51714;SDS011;39115;59.332;18.034;2023-04-01T01:28:21;1.23;;;0.40;;
51714;SDS011;39115;59.332;18.034;2023-04-01T01:33:50;1.40;;;0.30;;
51714;SDS011;39115;59.332;18.034;2023-04-01T01:36:13;1.40;;;0.47;;
51714;SDS011;39115;59.332;18.034;2023-04-01T01:38:36;0.70;;;0.40;;
51714;SDS011;39115;59.332;18.034;2023-04-01T01:40:58;1.58;;;0.40;;
51714;SDS011;39115;59.332;18.034;2023-04-01T01:43:27;1.63;;;0.50;;
51714;SDS011;39115;59.332;18.034;2023-04-01T01:45:55;1.77;;;0.30;;
51714;SDS011;39115;59.332;18.034;2023-04-01T01:48:20;1.95;;;0.38;;
51714;SDS011;39115;59.332;18.034;2023-04-01T01:50:43;0.63;;;0.40;;
51714;SDS011;39115;59.332;18.034;2023-04-01T01:53:06;2.08;;;0.40;;
51714;SDS011;39115;59.332;18.034;2023-04-01T01:55:31;4.22;;;0.50;;
51714;SDS011;39115;59.332;18.034;2023-04-01T01:57:51;0.90;;;0.38;;
51714;SDS011;39115;59.332;18.034;2023-04-01T02:00:12;0.80;;;0.30;;
51714;SDS011;39115;59.332;18.034;2023-04-01T02:02:34;1.23;;;0.40;;
51714;SDS011;39115;59.332;18.034;2023-04-01T02:04:55;1.48;;;0.43;;
51714;SDS011;39115;59.332;18.034;2023-04-01T02:07:18;2.33;;;0.40;;
51714;SDS011;39115;59.332;18.034;2023-04-01T02:09:45;1.00;;;0.40;;
51714;SDS011;39115;59.332;18.034;2023-04-01T02:12:06;1.70;;;0.32;;
51714;SDS011;39115;59.332;18.034;2023-04-01T02:14:30;2.13;;;0.40;;
51714;SDS011;39115;59.332;18.034;2023-04-01T02:17:02;1.45;;;0.43;;
51714;SDS011;39115;59.332;18.034;2023-04-01T02:19:32;4.20;;;0.40;;
51714;SDS011;39115;59.332;18.034;2023-04-01T02:21:58;1.40;;;0.35;;
51714;SDS011;39115;59.332;18.034;2023-04-01T02:24:21;1.65;;;0.60;;
51714;SDS011;39115;59.332;18.034;2023-04-01T02:26:44;1.58;;;0.38;;
51714;SDS011;39115;59.332;18.034;2023-04-01T02:29:06;1.05;;;0.20;;
51714;SDS011;39115;59.332;18.034;2023-04-01T02:31:29;1.75;;;0.47;;
51714;SDS011;39115;59.332;18.034;2023-04-01T02:33:51;1.05;;;0.40;;
51714;SDS011;39115;59.332;18.034;2023-04-01T02:36:13;2.80;;;0.32;;
51714;SDS011;39115;59.332;18.034;2023-04-01T02:38:35;1.88;;;0.30;;
51714;SDS011;39115;59.332;18.034;2023-04-01T02:40:57;1.88;;;0.40;;
51714;SDS011;39115;59.332;18.034;2023-04-01T02:43:20;2.67;;;0.35;;
51714;SDS011;39115;59.332;18.034;2023-04-01T02:45:41;2.40;;;0.30;;
51714;SDS011;39115;59.332;18.034;2023-04-01T02:48:03;1.65;;;0.40;;
51714;SDS011;39115;59.332;18.034;2023-04-01T02:50:23;1.02;;;0.38;;
51714;SDS011;39115;59.332;18.034;2023-04-01T02:52:44;0.30;;;0.20;;
51714;SDS011;39115;59.332;18.034;2023-04-01T02:55:05;4.20;;;0.40;;
51714;SDS011;39115;59.332;18.034;2023-04-01T02:57:26;1.52;;;0.30;;
51714;SDS011;39115;59.332;18.034;2023-04-01T02:59:46;0.77;;;0.40;;
51714;SDS011;39115;59.332;18.034;2023-04-01T03:02:07;2.78;;;0.30;;
51714;SDS011;39115;59.332;18.034;2023-04-01T03:04:28;0.60;;;0.40;;
51714;SDS011;39115;59.332;18.034;2023-04-01T03:06:49;1.15;;;0.30;;
51714;SDS011;39115;59.332;18.034;2023-04-01T03:09:09;0.57;;;0.30;;
51714;SDS011;39115;59.332;18.034;2023-04-01T03:11:30;0.50;;;0.30;;
51714;SDS011;39115;59.332;18.034;2023-04-01T03:13:51;0.65;;;0.40;;
51714;SDS011;39115;59.332;18.034;2023-04-01T03:16:11;1.05;;;0.32;;
51714;SDS011;39115;59.332;18.034;2023-04-01T03:18:32;2.00;;;0.40;;
51714;SDS011;39115;59.332;18.034;2023-04-01T03:20:52;0.70;;;0.20;;
51714;SDS011;39115;59.332;18.034;2023-04-01T03:23:13;0.50;;;0.30;;
51714;SDS011;39115;59.332;18.034;2023-04-01T03:25:33;0.75;;;0.50;;
51714;SDS011;39115;59.332;18.034;2023-04-01T03:27:54;0.52;;;0.30;;
51714;SDS011;39115;59.332;18.034;2023-04-01T03:30:15;1.10;;;0.35;;
51714;SDS011;39115;59.332;18.034;2023-04-01T03:32:35;1.67;;;0.45;;
51714;SDS011;39115;59.332;18.034;2023-04-01T03:34:56;1.20;;;0.30;;
51714;SDS011;39115;59.332;18.034;2023-04-01T03:37:16;0.80;;;0.30;;
51714;SDS011;39115;59.332;18.034;2023-04-01T03:39:37;0.65;;;0.30;;
51714;SDS011;39115;59.332;18.034;2023-04-01T03:41:57;0.60;;;0.50;;
51714;SDS011;39115;59.332;18.034;2023-04-01T03:44:18;0.68;;;0.40;;
51714;SDS011;39115;59.332;18.034;2023-04-01T03:46:38;1.17;;;0.40;;
51714;SDS011;39115;59.332;18.034;2023-04-01T03:48:59;0.77;;;0.30;;
51714;SDS011;39115;59.332;18.034;2023-04-01T03:51:20;1.05;;;0.30;;
51714;SDS011;39115;59.332;18.034;2023-04-01T03:53:40;0.95;;;0.55;;
51714;SDS011;39115;59.332;18.034;2023-04-01T03:56:07;3.70;;;0.30;;
51714;SDS011;39115;59.332;18.034;2023-04-01T03:58:28;2.28;;;0.73;;
51714;SDS011;39115;59.332;18.034;2023-04-01T04:00:49;1.70;;;0.40;;
51714;SDS011;39115;59.332;18.034;2023-04-01T04:03:10;0.45;;;0.30;;
51714;SDS011;39115;59.332;18.034;2023-04-01T04:05:30;1.92;;;0.30;;
51714;SDS011;39115;59.332;18.034;2023-04-01T04:07:51;1.92;;;0.40;;
51714;SDS011;39115;59.332;18.034;2023-04-01T04:10:12;0.47;;;0.28;;
51714;SDS011;39115;59.332;18.034;2023-04-01T04:12:32;0.52;;;0.32;;
51714;SDS011;39115;59.332;18.034;2023-04-01T04:14:53;0.80;;;0.40;;
51714;SDS011;39115;59.332;18.034;2023-04-01T04:17:13;1.35;;;0.30;;
51714;SDS011;39115;59.332;18.034;2023-04-01T04:19:36;0.88;;;0.30;;
51714;SDS011;39115;59.332;18.034;2023-04-01T04:21:56;1.30;;;0.40;;
51714;SDS011;39115;59.332;18.034;2023-04-01T04:24:17;0.63;;;0.30;;
51714;SDS011;39115;59.332;18.034;2023-04-01T04:26:38;2.00;;;0.45;;
51714;SDS011;39115;59.332;18.034;2023-04-01T04:28:58;2.67;;;0.40;;
51714;SDS011;39115;59.332;18.034;2023-04-01T04:31:19;0.85;;;0.40;;
51714;SDS011;39115;59.332;18.034;2023-04-01T04:33:44;0.70;;;0.40;;
51714;SDS011;39115;59.332;18.034;2023-04-01T04:36:05;2.90;;;0.40;;
51714;SDS011;39115;59.332;18.034;2023-04-01T04:38:26;3.90;;;0.30;;
51714;SDS011;39115;59.332;18.034;2023-04-01T04:40:46;0.50;;;0.30;;
51714;SDS011;39115;59.332;18.034;2023-04-01T04:43:08;1.90;;;0.40;;
51714;SDS011;39115;59.332;18.034;2023-04-01T04:45:31;0.50;;;0.30;;
51714;SDS011;39115;59.332;18.034;2023-04-01T04:47:52;1.88;;;0.40;;
51714;SDS011;39115;59.332;18.034;2023-04-01T04:50:12;1.52;;;0.40;;
51714;SDS011;39115;59.332;18.034;2023-04-01T04:52:33;1.20;;;0.50;;
51714;SDS011;39115;59.332;18.034;2023-04-01T04:54:54;0.50;;;0.30;;
51714;SDS011;39115;59.332;18.034;2023-04-01T04:57:14;1.38;;;0.30;;
51714;SDS011;39115;59.332;18.034;2023-04-01T04:59:35;1.92;;;0.38;;
51714;SDS011;39115;59.332;18.034;2023-04-01T05:01:56;1.35;;;0.43;;
51714;SDS011;39115;59.332;18.034;2023-04-01T05:04:17;0.60;;;0.30;;
51714;SDS011;39115;59.332;18.034;2023-04-01T05:06:37;1.75;;;0.45;;
51714;SDS011;39115;59.332;18.034;2023-04-01T05:08:58;1.50;;;0.40;;
51714;SDS011;39115;59.332;18.034;2023-04-01T05:11:19;0.98;;;0.40;;
51714;SDS011;39115;59.332;18.034;2023-04-01T05:13:40;0.60;;;0.30;;
51714;SDS011;39115;59.332;18.034;2023-04-01T05:16:02;1.60;;;0.45;;
51714;SDS011;39115;59.332;18.034;2023-04-01T05:18:22;1.75;;;0.30;;
51714;SDS011;39115;59.332;18.034;2023-04-01T05:20:50;3.50;;;0.93;;
51714;SDS011;39115;59.332;18.034;2023-04-01T05:23:12;0.75;;;0.30;;
51714;SDS011;39115;59.332;18.034;2023-04-01T05:25:32;2.65;;;0.30;;
51714;SDS011;39115;59.332;18.034;2023-04-01T05:27:53;1.30;;;0.30;;
51714;SDS011;39115;59.332;18.034;2023-04-01T05:30:13;0.43;;;0.30;;
51714;SDS011;39115;59.332;18.034;2023-04-01T05:32:34;0.85;;;0.30;;
51714;SDS011;39115;59.332;18.034;2023-04-01T05:34:54;0.93;;;0.40;;
51714;SDS011;39115;59.332;18.034;2023-04-01T05:37:15;1.08;;;0.40;;
51714;SDS011;39115;59.332;18.034;2023-04-01T05:39:38;1.55;;;0.30;;
51714;SDS011;39115;59.332;18.034;2023-04-01T05:41:58;2.67;;;1.52;;
51714;SDS011;39115;59.332;18.034;2023-04-01T05:44:19;1.67;;;0.40;;
51714;SDS011;39115;59.332;18.034;2023-04-01T05:46:40;1.23;;;0.30;;
51714;SDS011;39115;59.332;18.034;2023-04-01T05:49:00;1.02;;;0.30;;
51714;SDS011;39115;59.332;18.034;2023-04-01T05:51:21;1.98;;;0.40;;
51714;SDS011;39115;59.332;18.034;2023-04-01T05:53:43;2.13;;;0.40;;
51714;SDS011;39115;59.332;18.034;2023-04-01T05:56:03;2.05;;;0.30;;
51714;SDS011;39115;59.332;18.034;2023-04-01T05:58:24;4.90;;;0.40;;
51714;SDS011;39115;59.332;18.034;2023-04-01T06:00:44;2.67;;;0.60;;
51714;SDS011;39115;59.332;18.034;2023-04-01T06:03:05;1.08;;;0.47;;
51714;SDS011;39115;59.332;18.034;2023-04-01T06:05:29;0.77;;;0.50;;
51714;SDS011;39115;59.332;18.034;2023-04-01T06:07:59;1.23;;;0.40;;
51714;SDS011;39115;59.332;18.034;2023-04-01T06:11:28;0.90;;;0.30;;
51714;SDS011;39115;59.332;18.034;2023-04-01T06:13:38;0.90;;;0.30;;
51714;SDS011;39115;59.332;18.034;2023-04-01T06:16:05;1.38;;;0.28;;
51714;SDS011;39115;59.332;18.034;2023-04-01T06:24:08;0.77;;;0.22;;
51714;SDS011;39115;59.332;18.034;2023-04-01T06:32:45;1.27;;;0.28;;
51714;SDS011;39115;59.332;18.034;2023-04-01T06:37:41;2.75;;;0.20;;
51714;SDS011;39115;59.332;18.034;2023-04-01T06:43:13;1.88;;;0.30;;
51714;SDS011;39115;59.332;18.034;2023-04-01T06:56:29;1.27;;;0.20;;
51714;SDS011;39115;59.332;18.034;2023-04-01T06:59:33;1.60;;;0.20;;
51714;SDS011;39115;59.332;18.034;2023-04-01T07:01:47;1.95;;;0.40;;
51714;SDS011;39115;59.332;18.034;2023-04-01T07:06:40;1.02;;;0.15;;
51714;SDS011;39115;59.332;18.034;2023-04-01T07:09:14;0.93;;;0.20;;
51714;SDS011;39115;59.332;18.034;2023-04-01T07:11:39;1.23;;;0.40;;
51714;SDS011;39115;59.332;18.034;2023-04-01T07:14:10;1.50;;;0.20;;
51714;SDS011;39115;59.332;18.034;2023-04-01T07:16:41;2.55;;;0.30;;
51714;SDS011;39115;59.332;18.034;2023-04-01T07:21:53;0.10;;;0.10;;
51714;SDS011;39115;59.332;18.034;2023-04-01T07:24:20;1.95;;;0.20;;
51714;SDS011;39115;59.332;18.034;2023-04-01T07:26:45;0.30;;;0.20;;
51714;SDS011;39115;59.332;18.034;2023-04-01T07:29:09;1.25;;;0.30;;
51714;SDS011;39115;59.332;18.034;2023-04-01T07:31:37;2.28;;;0.20;;
51714;SDS011;39115;59.332;18.034;2023-04-01T07:35:21;1.75;;;0.20;;
51714;SDS011;39115;59.332;18.034;2023-04-01T07:39:55;0.73;;;0.22;;
51714;SDS011;39115;59.332;18.034;2023-04-01T07:42:39;1.70;;;0.20;;
51714;SDS011;39115;59.332;18.034;2023-04-01T07:45:18;2.53;;;0.30;;
51714;SDS011;39115;59.332;18.034;2023-04-01T07:53:11;0.25;;;0.20;;
51714;SDS011;39115;59.332;18.034;2023-04-01T08:10:40;1.52;;;0.20;;
51714;SDS011;39115;59.332;18.034;2023-04-01T08:20:48;1.23;;;0.20;;
51714;SDS011;39115;59.332;18.034;2023-04-01T08:23:14;2.47;;;0.20;;
51714;SDS011;39115;59.332;18.034;2023-04-01T08:25:37;1.30;;;0.30;;
51714;SDS011;39115;59.332;18.034;2023-04-01T08:33:01;3.38;;;0.30;;
51714;SDS011;39115;59.332;18.034;2023-04-01T08:38:46;0.95;;;0.30;;
51714;SDS011;39115;59.332;18.034;2023-04-01T08:41:19;3.75;;;0.30;;
51714;SDS011;39115;59.332;18.034;2023-04-01T08:49:10;2.15;;;0.20;;
51714;SDS011;39115;59.332;18.034;2023-04-01T09:02:00;1.58;;;0.20;;
51714;SDS011;39115;59.332;18.034;2023-04-01T09:05:39;1.70;;;0.22;;
51714;SDS011;39115;59.332;18.034;2023-04-01T09:10:56;2.20;;;0.52;;
51714;SDS011;39115;59.332;18.034;2023-04-01T09:27:04;0.85;;;0.20;;
51714;SDS011;39115;59.332;18.034;2023-04-01T09:29:35;2.03;;;0.30;;
51714;SDS011;39115;59.332;18.034;2023-04-01T09:32:12;0.93;;;0.15;;
51714;SDS011;39115;59.332;18.034;2023-04-01T09:38:04;0.68;;;0.28;;
51714;SDS011;39115;59.332;18.034;2023-04-01T09:43:12;2.45;;;0.30;;
51714;SDS011;39115;59.332;18.034;2023-04-01T09:55:00;2.13;;;0.10;;
51714;SDS011;39115;59.332;18.034;2023-04-01T09:59:47;0.52;;;0.17;;
51714;SDS011;39115;59.332;18.034;2023-04-01T10:13:10;0.75;;;0.10;;
51714;SDS011;39115;59.332;18.034;2023-04-01T10:18:48;0.65;;;0.10;;
51714;SDS011;39115;59.332;18.034;2023-04-01T10:32:43;0.52;;;0.10;;
51714;SDS011;39115;59.332;18.034;2023-04-01T10:47:18;0.50;;;0.00;;
51714;SDS011;39115;59.332;18.034;2023-04-01T11:01:07;0.60;;;0.00;;
51714;SDS011;39115;59.332;18.034;2023-04-01T11:43:37;0.10;;;0.00;;
51714;SDS011;39115;59.332;18.034;2023-04-01T12:10:05;0.47;;;0.00;;
51714;SDS011;39115;59.332;18.034;2023-04-01T12:31:47;0.25;;;0.10;;
51714;SDS011;39115;59.332;18.034;2023-04-01T12:37:16;2.25;;;0.10;;
51714;SDS011;39115;59.332;18.034;2023-04-01T13:07:23;0.15;;;0.00;;
51714;SDS011;39115;59.332;18.034;2023-04-01T13:10:04;0.75;;;0.00;;
51714;SDS011;39115;59.332;18.034;2023-04-01T13:15:31;0.82;;;0.10;;
51714;SDS011;39115;59.332;18.034;2023-04-01T13:18:17;1.63;;;0.00;;
51714;SDS011;39115;59.332;18.034;2023-04-01T13:26:12;0.75;;;0.00;;
51714;SDS011;39115;59.332;18.034;2023-04-01T13:28:50;1.27;;;0.00;;
51714;SDS011;39115;59.332;18.034;2023-04-01T13:36:42;1.95;;;0.10;;
51714;SDS011;39115;59.332;18.034;2023-04-01T13:44:50;0.90;;;0.00;;
51714;SDS011;39115;59.332;18.034;2023-04-01T14:01:13;0.20;;;0.00;;
51714;SDS011;39115;59.332;18.034;2023-04-01T14:30:04;0.32;;;0.00;;
51714;SDS011;39115;59.332;18.034;2023-04-01T14:34:59;2.53;;;0.20;;
51714;SDS011;39115;59.332;18.034;2023-04-01T14:45:49;0.50;;;0.10;;
51714;SDS011;39115;59.332;18.034;2023-04-01T14:48:38;0.60;;;0.00;;
51714;SDS011;39115;59.332;18.034;2023-04-01T14:51:34;0.45;;;0.10;;
51714;SDS011;39115;59.332;18.034;2023-04-01T14:56:38;1.00;;;0.10;;
51714;SDS011;39115;59.332;18.034;2023-04-01T14:59:41;1.08;;;0.17;;
51714;SDS011;39115;59.332;18.034;2023-04-01T15:02:01;1.10;;;0.10;;
51714;SDS011;39115;59.332;18.034;2023-04-01T15:07:04;1.63;;;0.15;;
51714;SDS011;39115;59.332;18.034;2023-04-01T15:12:20;0.60;;;0.10;;
51714;SDS011;39115;59.332;18.034;2023-04-01T15:35:46;0.70;;;0.10;;
51714;SDS011;39115;59.332;18.034;2023-04-01T15:38:39;0.83;;;0.10;;
51714;SDS011;39115;59.332;18.034;2023-04-01T15:43:49;1.02;;;0.20;;
51714;SDS011;39115;59.332;18.034;2023-04-01T15:56:41;0.73;;;0.10;;
51714;SDS011;39115;59.332;18.034;2023-04-01T16:01:44;1.75;;;0.20;;
51714;SDS011;39115;59.332;18.034;2023-04-01T16:07:02;2.00;;;0.40;;
51714;SDS011;39115;59.332;18.034;2023-04-01T16:12:16;3.33;;;0.45;;
51714;SDS011;39115;59.332;18.034;2023-04-01T16:21:00;1.35;;;0.20;;
51714;SDS011;39115;59.332;18.034;2023-04-01T16:28:38;1.05;;;0.30;;
51714;SDS011;39115;59.332;18.034;2023-04-01T16:36:39;1.48;;;0.30;;
51714;SDS011;39115;59.332;18.034;2023-04-01T16:42:01;0.80;;;0.30;;
51714;SDS011;39115;59.332;18.034;2023-04-01T16:44:48;3.00;;;2.70;;
51714;SDS011;39115;59.332;18.034;2023-04-01T16:47:20;8.25;;;2.17;;
51714;SDS011;39115;59.332;18.034;2023-04-01T16:52:34;1.20;;;0.63;;
51714;SDS011;39115;59.332;18.034;2023-04-01T16:55:03;1.95;;;0.80;;
51714;SDS011;39115;59.332;18.034;2023-04-01T16:57:37;2.85;;;0.60;;
51714;SDS011;39115;59.332;18.034;2023-04-01T17:02:42;3.28;;;0.30;;
51714;SDS011;39115;59.332;18.034;2023-04-01T17:05:51;3.33;;;0.40;;
51714;SDS011;39115;59.332;18.034;2023-04-01T17:08:51;1.80;;;0.52;;
51714;SDS011;39115;59.332;18.034;2023-04-01T17:11:44;5.00;;;0.40;;
51714;SDS011;39115;59.332;18.034;2023-04-01T17:19:55;3.45;;;0.40;;
51714;SDS011;39115;59.332;18.034;2023-04-01T17:22:41;3.35;;;0.30;;
51714;SDS011;39115;59.332;18.034;2023-04-01T17:25:09;2.00;;;0.40;;
51714;SDS011;39115;59.332;18.034;2023-04-01T17:30:22;2.03;;;0.40;;
51714;SDS011;39115;59.332;18.034;2023-04-01T17:33:01;2.70;;;0.70;;
51714;SDS011;39115;59.332;18.034;2023-04-01T17:36:31;5.82;;;0.70;;
51714;SDS011;39115;59.332;18.034;2023-04-01T17:38:38;2.50;;;0.60;;
51714;SDS011;39115;59.332;18.034;2023-04-01T17:41:27;6.32;;;1.38;;
51714;SDS011;39115;59.332;18.034;2023-04-01T17:43:52;7.40;;;1.65;;
51714;SDS011;39115;59.332;18.034;2023-04-01T17:51:48;6.00;;;1.08;;
51714;SDS011;39115;59.332;18.034;2023-04-01T17:57:09;3.53;;;0.80;;
51714;SDS011;39115;59.332;18.034;2023-04-01T17:59:47;5.40;;;0.95;;
51714;SDS011;39115;59.332;18.034;2023-04-01T18:05:37;5.03;;;0.52;;
51714;SDS011;39115;59.332;18.034;2023-04-01T18:13:24;3.70;;;0.60;;
51714;SDS011;39115;59.332;18.034;2023-04-01T18:24:19;3.72;;;1.10;;
51714;SDS011;39115;59.332;18.034;2023-04-01T18:32:15;6.70;;;0.80;;
51714;SDS011;39115;59.332;18.034;2023-04-01T18:37:19;2.55;;;0.50;;
51714;SDS011;39115;59.332;18.034;2023-04-01T18:39:52;5.97;;;0.90;;
51714;SDS011;39115;59.332;18.034;2023-04-01T18:42:28;3.67;;;1.00;;
51714;SDS011;39115;59.332;18.034;2023-04-01T18:52:44;5.68;;;1.10;;
51714;SDS011;39115;59.332;18.034;2023-04-01T18:58:06;5.35;;;0.85;;
51714;SDS011;39115;59.332;18.034;2023-04-01T19:06:08;5.13;;;0.80;;
51714;SDS011;39115;59.332;18.034;2023-04-01T19:08:47;5.75;;;0.80;;
51714;SDS011;39115;59.332;18.034;2023-04-01T19:27:18;4.35;;;0.82;;
51714;SDS011;39115;59.332;18.034;2023-04-01T19:32:54;3.78;;;0.52;;
51714;SDS011;39115;59.332;18.034;2023-04-01T19:37:28;3.65;;;0.60;;
51714;SDS011;39115;59.332;18.034;2023-04-01T19:43:08;6.65;;;0.50;;
51714;SDS011;39115;59.332;18.034;2023-04-01T19:46:06;5.20;;;0.52;;
51714;SDS011;39115;59.332;18.034;2023-04-01T19:48:36;5.45;;;0.82;;
51714;SDS011;39115;59.332;18.034;2023-04-01T19:59:34;6.25;;;0.95;;
51714;SDS011;39115;59.332;18.034;2023-04-01T20:04:50;5.30;;;1.42;;
51714;SDS011;39115;59.332;18.034;2023-04-01T20:13:12;6.15;;;0.40;;
51714;SDS011;39115;59.332;18.034;2023-04-01T20:16:08;5.07;;;0.60;;
51714;SDS011;39115;59.332;18.034;2023-04-01T20:21:27;5.15;;;0.60;;
51714;SDS011;39115;59.332;18.034;2023-04-01T20:26:36;7.53;;;0.50;;
51714;SDS011;39115;59.332;18.034;2023-04-01T20:40:38;7.85;;;0.75;;
51714;SDS011;39115;59.332;18.034;2023-04-01T20:48:36;9.90;;;0.77;;
51714;SDS011;39115;59.332;18.034;2023-04-01T20:51:22;8.70;;;1.25;;
51714;SDS011;39115;59.332;18.034;2023-04-01T21:01:43;1.52;;;0.40;;
51714;SDS011;39115;59.332;18.034;2023-04-01T21:07:31;5.72;;;0.50;;
51714;SDS011;39115;59.332;18.034;2023-04-01T21:12:53;4.82;;;0.90;;
51714;SDS011;39115;59.332;18.034;2023-04-01T21:16:07;6.68;;;0.82;;
51714;SDS011;39115;59.332;18.034;2023-04-01T21:21:01;9.15;;;1.15;;
51714;SDS011;39115;59.332;18.034;2023-04-01T21:26:34;2.72;;;0.50;;
51714;SDS011;39115;59.332;18.034;2023-04-01T21:31:53;4.40;;;0.70;;
51714;SDS011;39115;59.332;18.034;2023-04-01T21:34:40;6.32;;;0.52;;
